Latest Weather Observations for Flinders Reef

IDQ60801

Issued at 10:22 pm EST Monday 4 March 2024 (issued every 10 minutes, with the page automatically refreshed every 10 minutes)

About weather observations | Map of weather stations | Latest weather observations for QLD | Other Formats
Station Details ID: 200783 Name: FLINDERS REEF Lat: -17.72 Lon: 148.45 Height: 2.6 m
Data from the previous 72 hours. | See also: Recent months at Flinders Reef
Date/Time
EST
Temp
°C
App
Temp
°C
Dew
Point
°C
Rel
Hum
%
Delta-T
°C
Wind Press
QNH
hPa
Press
MSL
hPa
Rain since
9am
mm
Dir  Spd
km/h
Gust
km/h
Spd
kts
Gust
kts
04/10:00pm 27.7 - - - - SE 13 20 7 11 1013.0 1012.9 -
04/09:30pm 26.6 - - - - ENE 2 9 1 5 1013.4 1013.3 -
04/09:00pm 26.6 - - - - ENE 2 6 1 3 1012.9 1012.8 -
04/08:30pm 27.0 - - - - E 2 6 1 3 1012.6 1012.5 -
04/08:00pm 29.2 - - - - ESE 2 6 1 3 1012.1 1012.0 -
04/07:30pm 29.0 - - - - ESE 2 6 1 3 1011.8 1011.7 -
04/07:00pm 29.2 - - - - ESE 2 6 1 3 1011.4 1011.3 -
04/06:30pm 29.3 - - - - ESE 17 20 9 11 1011.0 1010.9 -
04/06:00pm 29.3 - - - - ESE 19 20 10 11 1010.9 1010.8 -
04/05:30pm 29.3 - - - - ESE 17 19 9 10 1010.6 1010.5 -
04/05:00pm 29.3 - - - - ESE 15 17 8 9 1010.4 1010.3 -
04/04:30pm 29.4 - - - - E 15 19 8 10 1010.3 1010.2 -
04/04:00pm 29.3 - - - - ESE 13 15 7 8 1010.5 1010.4 -
04/03:30pm 29.2 - - - - CALM 0 4 0 2 1010.7 1010.6 -
04/03:00pm 29.2 - - - - CALM 0 6 0 3 1010.7 1010.6 -
04/02:30pm 29.2 - - - - CALM 0 6 0 3 1010.9 1010.8 -
04/02:00pm 29.2 - - - - ESE 2 6 1 3 1011.1 1011.0 -
04/01:30pm 29.3 - - - - SE 2 6 1 3 1011.4 1011.3 -
04/01:00pm 29.4 - - - - E 15 19 8 10 1011.7 1011.6 -
04/12:30pm 29.5 - - - - E 15 17 8 9 1012.0 1011.9 -
04/12:00pm 29.3 - - - - E 15 17 8 9 1012.3 1012.2 -
04/11:30am 29.0 - - - - E 15 17 8 9 1012.6 1012.5 -
04/11:00am 29.2 - - - - E 9 11 5 6 1013.0 1012.9 -
04/10:30am 29.3 - - - - E 7 9 4 5 1013.4 1013.3 -
04/10:00am 29.5 - - - - CALM 0 6 0 3 1013.9 1013.8 -
04/09:30am 30.2 - - - - CALM 0 6 0 3 1014.0 1013.9 -
04/09:00am 30.3 - - - - CALM 0 0 0 0 1013.9 1013.8 -
04/08:30am 29.9 - - - - CALM 0 2 0 1 1014.0 1013.9 -
04/08:00am 30.0 - - - - CALM 0 4 0 2 1013.9 1013.8 -
04/07:30am 29.7 - - - - CALM 0 2 0 1 1013.4 1013.3 -
04/07:00am 29.3 - - - - CALM 0 2 0 1 1013.1 1013.0 -
04/06:30am 29.2 - - - - CALM 0 4 0 2 1012.6 1012.5 -
04/06:00am 29.2 - - - - CALM 0 4 0 2 1012.3 1012.2 -
04/05:30am 29.0 - - - - CALM 0 6 0 3 1012.1 1012.0 -
04/05:00am 29.0 - - - - CALM 0 4 0 2 1011.8 1011.7 -
04/04:30am 28.9 - - - - NE 2 4 1 2 1011.4 1011.3 -
04/04:00am 28.8 - - - - ENE 2 4 1 2 1011.1 1011.0 -
04/03:30am 28.7 - - - - CALM 0 6 0 3 1010.9 1010.8 -
04/03:00am 28.8 - - - - E 2 4 1 2 1011.2 1011.1 -
04/02:30am 28.8 - - - - E 2 6 1 3 1011.4 1011.3 -
04/02:00am 28.9 - - - - CALM 0 6 0 3 1011.7 1011.6 -
04/01:30am 29.0 - - - - E 2 6 1 3 1011.8 1011.7 -
04/01:00am 29.0 - - - - E 2 17 1 9 1012.2 1012.1 -
04/12:30am 29.1 - - - - E 2 6 1 3 1012.3 1012.2 -
04/12:00am 29.2 - - - - E 2 6 1 3 1012.4 1012.3 -
 
Date/Time
EST
Temp
°C
App
Temp
°C
Dew
Point
°C
Rel
Hum
%
Delta-T
°C
Wind Press
QNH
hPa
Press
MSL
hPa
Rain since
9am
mm
Dir  Spd
km/h
Gust
km/h
Spd
kts
Gust
kts
03/11:30pm 29.2 - - - - E 2 4 1 2 1012.7 1012.6 -
03/11:00pm 29.3 - - - - ESE 2 6 1 3 1013.3 1013.2 -
03/10:30pm 29.2 - - - - E 2 6 1 3 1013.5 1013.4 -
03/10:00pm 29.4 - - - - ESE 2 6 1 3 1013.4 1013.3 -
03/09:30pm 29.4 - - - - E 17 24 9 13 1013.5 1013.4 -
03/09:00pm 29.6 - - - - E 20 22 11 12 1013.3 1013.2 -
03/08:30pm 29.6 - - - - E 20 24 11 13 1012.8 1012.7 -
03/08:00pm 29.5 - - - - E 22 30 12 16 1012.3 1012.2 -
03/07:30pm 29.4 - - - - E 22 26 12 14 1012.2 1012.1 -
03/07:00pm 29.5 - - - - E 22 26 12 14 1011.7 1011.6 -
03/06:30pm 29.4 - - - - ESE 20 24 11 13 1011.6 1011.5 -
03/06:00pm 29.5 - - - - ESE 20 22 11 12 1011.4 1011.3 -
03/05:30pm 29.6 - - - - E 20 24 11 13 1011.1 1011.0 -
03/05:00pm 29.7 - - - - E 22 24 12 13 1010.8 1010.7 -
03/04:30pm 29.5 - - - - ESE 20 22 11 12 1010.6 1010.5 -
03/04:00pm 29.5 - - - - E 19 20 10 11 1010.6 1010.5 -
03/03:30pm 29.8 - - - - E 13 15 7 8 1011.0 1010.9 -
03/03:00pm 29.9 - - - - E 2 6 1 3 1011.1 1011.0 -
03/02:30pm 29.7 - - - - CALM 0 4 0 2 1011.4 1011.3 -
03/02:00pm 29.6 - - - - E 13 17 7 9 1011.4 1011.3 -
03/01:30pm 29.7 - - - - E 17 17 9 9 1011.4 1011.3 -
03/01:00pm 30.3 - - - - E 15 19 8 10 1011.9 1011.8 -
03/12:30pm 30.5 - - - - ENE 15 19 8 10 1012.7 1012.6 -
03/12:00pm 30.0 - - - - E 15 17 8 9 1013.2 1013.1 -
03/11:30am 30.3 - - - - E 17 19 9 10 1013.2 1013.1 -
03/11:00am 29.9 - - - - ENE 20 24 11 13 1013.3 1013.2 -
03/10:30am 29.7 - - - - E 19 22 10 12 1013.4 1013.3 -
03/10:00am 29.7 - - - - E 17 17 9 9 1013.7 1013.6 -
03/09:30am 29.9 - - - - E 17 19 9 10 1013.5 1013.4 -
03/09:00am 29.7 - - - - E 20 22 11 12 1013.5 1013.4 -
03/08:30am 29.7 - - - - E 22 26 12 14 1013.3 1013.2 -
03/08:00am 29.4 - - - - E 20 22 11 12 1012.8 1012.7 -
03/07:30am 29.2 - - - - E 19 22 10 12 1012.1 1012.0 -
03/07:00am 28.7 - - - - E 24 33 13 18 1011.9 1011.8 -
03/06:30am 28.8 - - - - E 24 28 13 15 1011.6 1011.5 -
03/06:00am 28.8 - - - - ESE 24 26 13 14 1011.4 1011.3 -
03/05:30am 28.9 - - - - E 19 20 10 11 1011.7 1011.6 -
03/05:00am 28.9 - - - - E 17 20 9 11 1011.7 1011.6 -
03/04:30am 28.8 - - - - E 19 20 10 11 1011.3 1011.2 -
03/04:00am 28.7 - - - - E 20 24 11 13 1011.1 1011.0 -
03/03:30am 28.8 - - - - E 19 24 10 13 1010.9 1010.8 -
03/03:00am 28.8 - - - - E 20 24 11 13 1010.9 1010.8 -
03/02:30am 28.6 - - - - E 22 26 12 14 1010.9 1010.8 -
03/02:00am 28.6 - - - - ESE 24 28 13 15 1011.2 1011.1 -
03/01:30am 27.6 - - - - E 20 26 11 14 1011.4 1011.3 -
03/01:00am 29.0 - - - - ESE 24 26 13 14 1011.6 1011.5 -
03/12:30am 28.9 - - - - ESE 24 28 13 15 1011.7 1011.6 -
03/12:00am 28.9 - - - - ESE 22 26 12 14 1011.7 1011.6 -
 
Date/Time
EST
Temp
°C
App
Temp
°C
Dew
Point
°C
Rel
Hum
%
Delta-T
°C
Wind Press
QNH
hPa
Press
MSL
hPa
Rain since
9am
mm
Dir  Spd
km/h
Gust
km/h
Spd
kts
Gust
kts
02/11:30pm 29.0 - - - - ESE 20 24 11 13 1012.3 1012.2 -
02/11:00pm 29.1 - - - - ESE 20 24 11 13 1012.7 1012.6 -
02/10:30pm 29.1 - - - - ESE 20 24 11 13 1012.7 1012.6 -
02/10:00pm 29.1 - - - - E 20 22 11 12 1012.7 1012.6 -
02/09:30pm 29.1 - - - - E 19 20 10 11 1012.6 1012.5 -
02/09:00pm 29.1 - - - - E 19 20 10 11 1012.3 1012.2 -
02/08:30pm 29.2 - - - - E 19 22 10 12 1012.2 1012.1 -
02/08:00pm 29.2 - - - - E 20 22 11 12 1011.8 1011.7 -
02/07:30pm 29.2 - - - - E 17 20 9 11 1011.6 1011.5 -
02/07:00pm 29.2 - - - - E 17 20 9 11 1011.3 1011.2 -
02/06:30pm 29.2 - - - - E 9 19 5 10 1010.9 1010.8 -
02/06:00pm 29.3 - - - - ESE 15 19 8 10 1010.6 1010.5 -
02/05:30pm 29.3 - - - - E 15 17 8 9 1010.4 1010.3 -
02/05:00pm 29.3 - - - - E 4 17 2 9 1010.1 1010.0 -
02/04:30pm 29.6 - - - - CALM 0 4 0 2 1010.1 1010.0 -
02/04:00pm 29.4 - - - - CALM 0 6 0 3 1009.9 1009.8 -
02/03:30pm 30.2 - - - - E 13 20 7 11 1010.0 1009.9 -
02/03:00pm 30.1 - - - - E 2 6 1 3 1010.1 1010.0 -
02/02:30pm 30.0 - - - - E 2 4 1 2 1010.2 1010.1 -
02/02:00pm 30.2 - - - - ENE 2 6 1 3 1010.3 1010.2 -
02/01:30pm 30.1 - - - - E 2 6 1 3 1010.5 1010.4 -
02/01:00pm 30.1 - - - - E 2 6 1 3 1010.8 1010.7 -
02/12:30pm 29.9 - - - - E 2 6 1 3 1011.2 1011.1 -
02/12:00pm 29.8 - - - - ENE 2 6 1 3 1011.7 1011.6 -
02/11:30am 29.7 - - - - ENE 2 6 1 3 1012.0 1011.9 -
02/11:00am 29.8 - - - - ENE 2 6 1 3 1012.1 1012.0 -
02/10:30am 29.7 - - - - E 20 26 11 14 1012.1 1012.0 -
02/10:00am 29.3 - - - - E 19 22 10 12 1012.1 1012.0 -
02/09:30am 29.0 - - - - E 20 24 11 13 1012.1 1012.0 -
02/09:00am 28.9 - - - - E 24 28 13 15 1011.8 1011.7 -
02/08:30am 28.8 - - - - E 30 32 16 17 1011.5 1011.4 -
02/08:00am 28.3 - - - - E 28 33 15 18 1011.6 1011.5 -
02/07:30am 28.4 - - - - E 32 35 17 19 1011.1 1011.0 -
02/07:00am 27.9 - - - - E 33 43 18 23 1010.9 1010.8 -
02/06:30am 28.5 - - - - ESE 28 33 15 18 1010.5 1010.4 -
02/06:00am 28.4 - - - - E 32 35 17 19 1010.1 1010.0 -
02/05:30am 28.4 - - - - ESE 30 33 16 18 1009.9 1009.8 -
02/05:00am 28.4 - - - - ESE 32 35 17 19 1009.9 1009.8 -
02/04:30am 28.4 - - - - ESE 33 39 18 21 1009.9 1009.8 -
02/04:00am 28.5 - - - - ESE 32 39 17 21 1009.8 1009.7 -
02/03:30am 28.3 - - - - ESE 33 39 18 21 1009.8 1009.7 -
02/03:00am 28.2 - - - - ESE 33 39 18 21 1009.8 1009.7 -
02/02:30am 28.5 - - - - ESE 32 35 17 19 1010.2 1010.1 -
02/02:00am 28.5 - - - - ESE 32 35 17 19 1010.4 1010.3 -
02/01:30am 28.4 - - - - SE 28 33 15 18 1010.8 1010.7 -
02/01:00am 28.6 - - - - ESE 30 33 16 18 1011.0 1010.9 -
02/12:30am 28.4 - - - - SE 26 30 14 16 1011.3 1011.2 -
02/12:00am 28.5 - - - - ESE 28 32 15 17 1011.7 1011.6 -
 
Date/Time
EST
Temp
°C
App
Temp
°C
Dew
Point
°C
Rel
Hum
%
Delta-T
°C
Wind Press
QNH
hPa
Press
MSL
hPa
Rain since
9am
mm
Dir  Spd
km/h
Gust
km/h
Spd
kts
Gust
kts
01/11:30pm 27.9 - - - - SSE 26 30 14 16 1011.9 1011.8 -
01/11:00pm 27.9 - - - - SSE 32 35 17 19 1012.3 1012.2 -
01/10:30pm 28.0 - - - - SSE 30 35 16 19 1012.5 1012.4 -

Other formats

Comma delimited format used in spreadsheet applications
http://www.bom.gov.au/fwo/IDQ60801/IDQ60801.94290.axf

JavaScript Object Notation format (JSON) in row-major order
http://www.bom.gov.au/fwo/IDQ60801/IDQ60801.94290.json

Data quality

Most of these data are generated automatically and are frequently updated. Quality checks on data are not normally performed. It is possible for incorrect values to appear. Refer to information at About Latest Weather Observations and please check the disclaimer before using these data.